Observations for BELFAST ALDERGROVE, United Kingdom (EGAA)

EGAA 221420Z 25014KT 9999 BKN025 11/08 Q1038
EGAA 221350Z 24013KT 9999 SCT023 BKN028 11/08 Q1038 
EGAA 221320Z 25014KT 9999 BKN024 11/08 Q1038
EGAA 221250Z 24011KT 9999 BKN025 10/08 Q1038
EGAA 221220Z 22011KT 9999 SCT029 BKN035 11/08 Q1038 
EGAA 221150Z 23012KT CAVOK 10/08 Q1039  
EGAA 221120Z 24012KT 9999 FEW018 10/08 Q1039
EGAA 221050Z 24012KT 9999 FEW039 09/07 Q1039
EGAA 221020Z 24010KT 9999 BKN042 08/07 Q1040
EGAA 220950Z 22009KT 9999 SCT041 08/07 Q1039
EGAA 220920Z 24011KT 9999 BKN041 07/06 Q1039
EGAA 220850Z 23011KT 9999 BKN042 07/06 Q1039
EGAA 220820Z 21006KT CAVOK 06/05 Q1038  
EGAA 220750Z 21006KT CAVOK 05/05 Q1038  
EGAA 220720Z 22006KT 9999 FEW048 06/05 Q1038
EGAA 220650Z 24007KT 9999 FEW047 06/04 Q1038
EGAA 220620Z 24010KT 9999 FEW045 05/04 Q1038
EGAA 220550Z 24008KT 9999 SCT048 05/04 Q1038
EGAA 220520Z 23007KT 9999 FEW028 06/05 Q1038
EGAA 220450Z 24007KT CAVOK 05/04 Q1037  
EGAA 220420Z 25009KT CAVOK 05/04 Q1037  
EGAA 220350Z 25009KT 9999 SCT045 06/04 Q1037
EGAA 220320Z AUTO 25008KT 9999 NCD 05/03 Q1036  
EGAA 220250Z AUTO 24007KT 9999 NCD 05/03 Q1036  
EGAA 220220Z AUTO 25007KT 9999 NCD 06/04 Q1036  
EGAA 220150Z 26009KT 9999 FEW031 06/04 Q1036
EGAA 220120Z 25007KT 9999 FEW032 05/03 Q1036
EGAA 220050Z 25007KT CAVOK 06/04 Q1036  
EGAA 220020Z 26009KT CAVOK 07/05 Q1035  
EGAA 212350Z 27009KT 9999 FEW040 07/05 Q1035
EGAA 212320Z 26007KT CAVOK 06/05 Q1035  
EGAA 212250Z 26009KT 9999 FEW021 SCT034 BKN040 07/05 Q1035  
EGAA 212220Z 26010KT 9999 FEW035 08/05 Q1034
EGAA 212150Z 26009KT CAVOK 07/05 Q1034  
EGAA 212120Z 26010KT CAVOK 07/04 Q1034  
EGAA 212050Z 26009KT 9999 FEW030 SCT044 08/05 Q1034 
EGAA 212020Z 26010KT 9999 FEW037 08/04 Q1033
EGAA 211950Z 26010KT 9999 FEW030 SCT046 08/04 Q1033 
EGAA 211920Z 26008KT CAVOK 08/04 Q1033  
EGAA 211850Z 29008KT 9999 SCT043 09/04 Q1032
EGAA 211820Z 28008KT 9999 FEW040 09/03 Q1032
EGAA 211750Z 29011KT 9999 FEW035 SCT041 09/04 Q1032 
EGAA 211720Z 30010KT 9999 FEW020 SCT042 10/06 Q1031 
EGAA 211650Z 30009KT 9999 SCT033 11/05 Q1030
EGAA 211620Z 28015KT 9999 FEW030 BKN042 11/04 Q1030 
EGAA 211550Z 29014KT 9999 FEW030 BKN041 11/04 Q1030 
EGAA 211520Z 30016G27KT 9999 SCT031 11/06 Q1029 
EGAA 211450Z 29015KT 9999 FEW031 SCT040 11/06 Q1029 
EGAA 211420Z 29015KT 9999 SCT031 12/07 Q1028
EGAA 211350Z 29014KT 9999 FEW020 SCT039 12/08 Q1028